Historyczne dane pomiarowe

Dodano dane terminowe – wersja testowa.

Dane z okresu 1951-2019

Wersja bazy: 1.34 [2019-03-16, lista zmian], aktualizacja planowana na 2019-04-15

Dane meteo z obszaru Polski uzyskane na podstawie danych udostępnionych przez Instytut Meteorologii i Gospodarki Wodnej – Państwowy Instytut Badawczy.

 

Wybierz Datę:    

       

TemperaturaWilgotnośćWiatrCiśnienieOpadyŚniegCzas trwania zjawisk
 Stacja t tx tn tng RH VA  wxwx mslp ppp RRR   cm mm wxwxwxwxwxwxwx
1987-08-14 11.6 18.0 4.0- 84.5- 6.3 3.3---- 3.5------------
1987-08-13 11.6 18.0 3.0- 76.5- 5.0 2.0---- 0.0------------
1987-08-12 11.4 16.5 7.9- 84.0- 3.3 3.0---- 0.0------------
1987-08-11 12.3 16.1 10.9- 84.3- 5.7 3.7---- 0.8------------
1987-08-10 13.6 18.6 11.9- 93.5- 6.7 3.3---- 6.2------------
1987-08-09 16.6 23.1 8.4- 71.0- 4.7 2.0---- 2.1------------
1987-08-08 13.6 19.0 6.0- 74.8- 2.7 4.0---- 0.0------------
1987-08-07 9.8 14.4 6.0- 87.3- 6.0 1.3---- 3.1------------
1987-08-06 9.4 14.0 7.9- 90.5- 5.0 3.3---- 1.9------------
1987-08-05 11.1 17.0 6.5- 82.3- 5.7 3.0---- 4.3------------
1987-08-04 15.0 18.1 7.5- 81.3- 6.7 3.7---- 2.0------------
1987-08-03 13.8 18.5 10.4- 84.3- 7.0 2.7---- 0.0------------
1987-08-02 13.8 18.3 10.3- 77.8- 7.0 4.0---- 3.5------------
1987-08-01 14.7 19.6 10.0- 83.0- 6.3 3.7---- 1.4------------
1987-07-31 14.4 18.8 12.4- 91.5- 8.0 3.3---- 2.3------------
1987-07-30 17.2 22.5 9.4- 77.8- 2.3 2.7---- 4.5------------
1987-07-29 12.9 17.0 9.9- 81.5- 8.0 3.3---- 0.0------------
1987-07-28 12.5 14.5 11.1- 90.8- 7.7 4.3---- 2.6------------
1987-07-27 11.3 15.2 7.5- 79.5- 6.7 4.0---- 2.2------------
1987-07-26 11.7 17.1 9.4- 96.8- 6.7 1.3---- 7.8------------
1987-07-25 17.3 23.0 10.9- 87.5- 7.0 3.7---- 9.5------------
1987-07-24 19.9 25.6 16.6- 81.5- 6.3 2.0---- 0.6------------
1987-07-23 18.5 26.0 8.9- 81.8- 4.3 1.7---- 0.7------------
1987-07-22 18.3 22.5 16.1- 89.0- 5.3 2.0---- 0.0------------
1987-07-21 18.3 24.0 11.3- 82.0- 6.7 3.3---- 1.2------------
1987-07-20 18.7 22.0 16.9- 87.3- 5.0 4.3---- 0.0------------
1987-07-19 20.7 25.0 18.8- 87.5- 5.7 3.0---- 4.8------------
1987-07-18 21.9 28.2 14.4- 83.5- 5.3 2.0---- 3.3------------
1987-07-17 21.1 28.0 10.4- 84.0- 7.3 3.7---- 0.0------------
1987-07-16 19.4 25.5 9.3- 76.3- 5.7 2.0---- 3.7------------
1987-07-15 15.8 21.5 9.4- 74.0- 1.3 3.3---- 0.0------------
1987-07-14 14.7 19.6 7.0- 69.5- 1.3 2.3---- 0.0------------
1987-07-13 17.4 21.5 14.5- 77.8- 6.3 4.0---- 0.0------------
1987-07-12 18.9 27.0 11.3- 73.8- 5.3 4.3---- 15.0------------
1987-07-11 15.4 22.6 6.0- 69.5- 2.0 3.0---- 0.0------------
1987-07-10 13.6 18.0 10.4- 76.0- 3.7 5.0---- 0.0------------
1987-07-09 16.3 23.3 11.4- 98.8- 8.0 3.0---- 14.2------------
1987-07-08 20.4 27.5 8.2- 54.8- 2.3 3.7---- 0.4------------
1987-07-07 17.4 25.0 5.4- 63.3- 0.7 2.3---- 0.0------------
1987-07-06 16.5 22.0 6.5- 66.5- 0.7 2.7---- 0.0------------
1987-07-05 15.5 19.0 11.9- 76.0- 4.3 3.3---- 0.0------------
1987-07-04 18.2 22.5 12.2- 77.8- 4.3 2.7---- 0.6------------
1987-07-03 17.4 21.5 14.9- 81.5- 7.7 2.7---- 0.0------------
1987-07-02 17.6 25.8 15.4- 87.3- 8.0 3.0---- 0.0------------
1987-07-01 23.8 29.1 15.9- 72.8- 1.3 3.7---- 0.0------------
1987-06-30 21.9 28.6 12.4- 74.0- 0.0 2.3---- 0.0------------
1987-06-29 20.1 23.2 13.4- 79.0- 2.3 2.3---- 0.0------------
1987-06-28 17.4 23.6 9.4- 80.3- 6.7 4.3---- 0.0------------
1987-06-27 16.4 19.1 14.4- 92.0- 7.0 2.3---- 0.0------------
1987-06-26 15.2 23.0 6.0- 74.8- 6.3 3.7---- 10.9------------
1987-06-25 13.7 17.1 12.3- 82.8- 6.3 3.7---- 0.0------------
1987-06-24 14.8 19.6 10.4- 69.8- 5.7 3.7---- 0.7------------
1987-06-23 14.0 19.6 12.1- 89.3- 6.3 2.3---- 0.7------------
1987-06-22 13.5 19.7 10.9- 92.8- 8.0 3.3---- 17.3------------
1987-06-21 16.7 22.6 6.3- 70.5- 3.7 2.3---- 0.0------------
1987-06-20 14.3 20.4 5.8- 70.3- 5.3 1.3---- 0.0------------
1987-06-19 12.2 17.1 7.5- 71.0- 3.0 2.3---- 0.1------------
1987-06-18 9.0 13.3 4.5- 82.5- 6.0 4.3---- 0.3------------
1987-06-17 10.1 13.8 8.3- 73.0- 6.7 3.0---- 0.0------------
1987-06-16 12.8 24.0 8.9- 90.8- 8.0 3.0---- 6.0------------
542.1 ms

 

Źródłem pochodzenia danych jest Instytut Meteorologii i Gospodarki Wodnej – Państwowy Instytut Badawczy. Dane Instytutu Meteorologii i Gospodarki Wodnej – Państwowego Instytutu Badawczego zostały przetworzone.

Dane źródłowe można odnaleźć na stronie https://dane.imgw.pl